sensor_id;sensor_type;location;lat;lon;timestamp;temperature;humidity
8103;DHT22;4094;49.948;11.574;2023-02-20T00:00:10;11.20;76.30
8103;DHT22;4094;49.948;11.574;2023-02-20T00:02:43;11.20;76.30
8103;DHT22;4094;49.948;11.574;2023-02-20T00:05:13;11.20;76.30
8103;DHT22;4094;49.948;11.574;2023-02-20T00:07:42;11.20;76.30
8103;DHT22;4094;49.948;11.574;2023-02-20T00:10:13;11.20;76.30
8103;DHT22;4094;49.948;11.574;2023-02-20T00:12:43;11.20;76.30
8103;DHT22;4094;49.948;11.574;2023-02-20T00:15:15;11.20;76.00
8103;DHT22;4094;49.948;11.574;2023-02-20T00:17:46;11.20;76.00
8103;DHT22;4094;49.948;11.574;2023-02-20T00:20:17;11.20;76.00
8103;DHT22;4094;49.948;11.574;2023-02-20T00:22:47;11.20;75.90
8103;DHT22;4094;49.948;11.574;2023-02-20T00:25:17;11.20;75.90
8103;DHT22;4094;49.948;11.574;2023-02-20T00:27:46;11.20;75.90
8103;DHT22;4094;49.948;11.574;2023-02-20T00:30:19;11.20;75.90
8103;DHT22;4094;49.948;11.574;2023-02-20T00:32:50;11.20;76.00
8103;DHT22;4094;49.948;11.574;2023-02-20T00:35:21;11.20;75.90
8103;DHT22;4094;49.948;11.574;2023-02-20T00:37:51;11.20;75.80
8103;DHT22;4094;49.948;11.574;2023-02-20T00:40:22;11.10;75.80
8103;DHT22;4094;49.948;11.574;2023-02-20T00:42:51;11.10;75.70
8103;DHT22;4094;49.948;11.574;2023-02-20T00:45:22;11.10;75.60
8103;DHT22;4094;49.948;11.574;2023-02-20T00:47:50;11.10;75.40
8103;DHT22;4094;49.948;11.574;2023-02-20T00:50:19;11.10;75.50
8103;DHT22;4094;49.948;11.574;2023-02-20T00:52:48;11.10;75.60
8103;DHT22;4094;49.948;11.574;2023-02-20T00:55:18;11.10;75.40
8103;DHT22;4094;49.948;11.574;2023-02-20T00:57:46;11.10;75.50
8103;DHT22;4094;49.948;11.574;2023-02-20T01:00:19;11.20;75.60
8103;DHT22;4094;49.948;11.574;2023-02-20T01:02:50;11.20;75.80
8103;DHT22;4094;49.948;11.574;2023-02-20T01:05:19;11.10;75.40
8103;DHT22;4094;49.948;11.574;2023-02-20T01:07:48;11.10;75.20
8103;DHT22;4094;49.948;11.574;2023-02-20T01:10:17;11.10;75.40
8103;DHT22;4094;49.948;11.574;2023-02-20T01:12:47;11.10;75.40
8103;DHT22;4094;49.948;11.574;2023-02-20T01:15:15;11.10;75.40
8103;DHT22;4094;49.948;11.574;2023-02-20T01:17:45;11.10;75.30
8103;DHT22;4094;49.948;11.574;2023-02-20T01:20:16;11.10;76.10
8103;DHT22;4094;49.948;11.574;2023-02-20T01:22:45;11.10;75.30
8103;DHT22;4094;49.948;11.574;2023-02-20T01:25:14;11.10;75.40
8103;DHT22;4094;49.948;11.574;2023-02-20T01:27:44;11.10;75.10
8103;DHT22;4094;49.948;11.574;2023-02-20T01:30:14;11.10;75.00
8103;DHT22;4094;49.948;11.574;2023-02-20T01:32:43;11.10;75.10
8103;DHT22;4094;49.948;11.574;2023-02-20T01:35:16;11.10;75.00
8103;DHT22;4094;49.948;11.574;2023-02-20T01:37:45;11.10;74.90
8103;DHT22;4094;49.948;11.574;2023-02-20T01:40:15;11.10;75.00
8103;DHT22;4094;49.948;11.574;2023-02-20T01:42:44;11.10;75.00
8103;DHT22;4094;49.948;11.574;2023-02-20T01:45:14;11.10;74.80
8103;DHT22;4094;49.948;11.574;2023-02-20T01:47:43;11.10;74.80
8103;DHT22;4094;49.948;11.574;2023-02-20T01:50:13;11.10;74.70
8103;DHT22;4094;49.948;11.574;2023-02-20T01:52:47;11.10;74.50
8103;DHT22;4094;49.948;11.574;2023-02-20T01:55:21;11.10;74.50
8103;DHT22;4094;49.948;11.574;2023-02-20T01:57:55;11.10;74.40
8103;DHT22;4094;49.948;11.574;2023-02-20T02:00:26;11.10;74.30
8103;DHT22;4094;49.948;11.574;2023-02-20T02:02:58;11.10;74.40
8103;DHT22;4094;49.948;11.574;2023-02-20T02:05:28;11.10;74.20
8103;DHT22;4094;49.948;11.574;2023-02-20T02:08:03;11.10;74.20
8103;DHT22;4094;49.948;11.574;2023-02-20T02:10:38;11.10;74.10
8103;DHT22;4094;49.948;11.574;2023-02-20T02:13:11;11.10;74.30
8103;DHT22;4094;49.948;11.574;2023-02-20T02:15:40;11.10;74.20
8103;DHT22;4094;49.948;11.574;2023-02-20T02:18:36;11.10;74.20
8103;DHT22;4094;49.948;11.574;2023-02-20T02:27:53;11.00;74.20
8103;DHT22;4094;49.948;11.574;2023-02-20T02:34:00;11.00;74.20
8103;DHT22;4094;49.948;11.574;2023-02-20T02:36:49;11.00;74.20
8103;DHT22;4094;49.948;11.574;2023-02-20T02:39:24;11.00;74.40
8103;DHT22;4094;49.948;11.574;2023-02-20T02:42:02;11.00;74.20
8103;DHT22;4094;49.948;11.574;2023-02-20T02:44:39;11.00;74.20
8103;DHT22;4094;49.948;11.574;2023-02-20T02:47:12;11.00;74.20
8103;DHT22;4094;49.948;11.574;2023-02-20T02:49:47;11.00;74.20
8103;DHT22;4094;49.948;11.574;2023-02-20T02:52:19;11.00;74.10
8103;DHT22;4094;49.948;11.574;2023-02-20T02:55:03;11.00;74.10
8103;DHT22;4094;49.948;11.574;2023-02-20T02:57:32;10.90;74.10
8103;DHT22;4094;49.948;11.574;2023-02-20T03:00:05;10.90;74.10
8103;DHT22;4094;49.948;11.574;2023-02-20T03:02:40;10.90;74.20
8103;DHT22;4094;49.948;11.574;2023-02-20T03:05:15;10.90;74.20
8103;DHT22;4094;49.948;11.574;2023-02-20T03:07:52;10.90;74.20
8103;DHT22;4094;49.948;11.574;2023-02-20T03:10:22;10.90;74.20
8103;DHT22;4094;49.948;11.574;2023-02-20T03:13:03;10.90;74.10
8103;DHT22;4094;49.948;11.574;2023-02-20T03:15:35;10.90;74.00
8103;DHT22;4094;49.948;11.574;2023-02-20T03:18:11;10.90;73.90
8103;DHT22;4094;49.948;11.574;2023-02-20T03:20:47;10.90;73.80
8103;DHT22;4094;49.948;11.574;2023-02-20T03:23:21;10.90;73.80
8103;DHT22;4094;49.948;11.574;2023-02-20T03:25:53;10.90;73.60
8103;DHT22;4094;49.948;11.574;2023-02-20T03:28:27;10.90;73.40
8103;DHT22;4094;49.948;11.574;2023-02-20T03:31:03;10.90;73.20
8103;DHT22;4094;49.948;11.574;2023-02-20T03:33:36;10.90;73.20
8103;DHT22;4094;49.948;11.574;2023-02-20T03:36:26;10.80;72.80
8103;DHT22;4094;49.948;11.574;2023-02-20T03:39:22;10.80;73.00
8103;DHT22;4094;49.948;11.574;2023-02-20T03:42:11;10.80;72.80
8103;DHT22;4094;49.948;11.574;2023-02-20T03:45:06;10.80;73.00
8103;DHT22;4094;49.948;11.574;2023-02-20T03:47:38;10.80;72.90
8103;DHT22;4094;49.948;11.574;2023-02-20T03:50:09;10.80;72.80
8103;DHT22;4094;49.948;11.574;2023-02-20T03:52:41;10.80;72.70
8103;DHT22;4094;49.948;11.574;2023-02-20T03:55:11;10.80;72.70
8103;DHT22;4094;49.948;11.574;2023-02-20T03:57:42;10.80;72.60
8103;DHT22;4094;49.948;11.574;2023-02-20T04:00:15;10.80;72.60
8103;DHT22;4094;49.948;11.574;2023-02-20T04:02:52;10.80;72.60
8103;DHT22;4094;49.948;11.574;2023-02-20T04:05:29;10.80;72.60
8103;DHT22;4094;49.948;11.574;2023-02-20T04:08:03;10.90;72.70
8103;DHT22;4094;49.948;11.574;2023-02-20T04:10:39;10.90;72.60
8103;DHT22;4094;49.948;11.574;2023-02-20T04:13:12;10.90;72.50
8103;DHT22;4094;49.948;11.574;2023-02-20T04:15:46;10.80;72.30
8103;DHT22;4094;49.948;11.574;2023-02-20T04:18:17;10.80;72.40
8103;DHT22;4094;49.948;11.574;2023-02-20T04:20:51;10.80;72.30
8103;DHT22;4094;49.948;11.574;2023-02-20T04:23:33;10.80;72.30
8103;DHT22;4094;49.948;11.574;2023-02-20T04:26:08;10.80;72.30
8103;DHT22;4094;49.948;11.574;2023-02-20T04:28:42;10.80;72.30
8103;DHT22;4094;49.948;11.574;2023-02-20T04:31:15;10.80;72.30
8103;DHT22;4094;49.948;11.574;2023-02-20T04:33:47;10.80;72.30
8103;DHT22;4094;49.948;11.574;2023-02-20T04:36:20;10.80;72.10
8103;DHT22;4094;49.948;11.574;2023-02-20T04:38:51;10.80;72.40
8103;DHT22;4094;49.948;11.574;2023-02-20T04:41:26;10.80;72.30
8103;DHT22;4094;49.948;11.574;2023-02-20T04:43:55;10.80;72.40
8103;DHT22;4094;49.948;11.574;2023-02-20T04:46:38;10.80;72.60
8103;DHT22;4094;49.948;11.574;2023-02-20T04:49:07;10.70;72.70
8103;DHT22;4094;49.948;11.574;2023-02-20T04:51:37;10.70;72.70
8103;DHT22;4094;49.948;11.574;2023-02-20T04:54:07;10.70;72.70
8103;DHT22;4094;49.948;11.574;2023-02-20T04:56:37;10.70;72.70
8103;DHT22;4094;49.948;11.574;2023-02-20T04:59:07;10.70;72.70
8103;DHT22;4094;49.948;11.574;2023-02-20T05:01:36;10.70;72.90
8103;DHT22;4094;49.948;11.574;2023-02-20T05:04:06;10.70;73.00
8103;DHT22;4094;49.948;11.574;2023-02-20T05:06:40;10.70;73.00
8103;DHT22;4094;49.948;11.574;2023-02-20T05:09:09;10.70;73.10
8103;DHT22;4094;49.948;11.574;2023-02-20T05:11:40;10.70;73.20
8103;DHT22;4094;49.948;11.574;2023-02-20T05:14:09;10.70;73.10
8103;DHT22;4094;49.948;11.574;2023-02-20T05:16:38;10.70;73.10
8103;DHT22;4094;49.948;11.574;2023-02-20T05:19:08;10.70;73.10
8103;DHT22;4094;49.948;11.574;2023-02-20T05:21:37;10.70;73.10
8103;DHT22;4094;49.948;11.574;2023-02-20T05:24:26;10.70;73.00
8103;DHT22;4094;49.948;11.574;2023-02-20T05:26:58;10.80;73.10
8103;DHT22;4094;49.948;11.574;2023-02-20T05:29:27;10.70;73.00
8103;DHT22;4094;49.948;11.574;2023-02-20T05:31:56;10.80;73.10
8103;DHT22;4094;49.948;11.574;2023-02-20T05:34:25;10.80;73.00
8103;DHT22;4094;49.948;11.574;2023-02-20T05:36:54;10.80;73.00
8103;DHT22;4094;49.948;11.574;2023-02-20T05:39:23;10.70;72.90
8103;DHT22;4094;49.948;11.574;2023-02-20T05:41:52;10.80;73.10
8103;DHT22;4094;49.948;11.574;2023-02-20T05:44:23;10.70;73.00
8103;DHT22;4094;49.948;11.574;2023-02-20T05:46:52;10.70;72.80
8103;DHT22;4094;49.948;11.574;2023-02-20T05:49:22;10.70;72.80
8103;DHT22;4094;49.948;11.574;2023-02-20T05:51:51;10.70;72.80
8103;DHT22;4094;49.948;11.574;2023-02-20T05:54:23;10.80;72.80
8103;DHT22;4094;49.948;11.574;2023-02-20T05:56:52;10.80;72.70
8103;DHT22;4094;49.948;11.574;2023-02-20T05:59:23;10.80;72.70
8103;DHT22;4094;49.948;11.574;2023-02-20T06:01:57;10.80;72.40
8103;DHT22;4094;49.948;11.574;2023-02-20T06:04:27;10.80;72.50
8103;DHT22;4094;49.948;11.574;2023-02-20T06:06:57;10.80;72.60
8103;DHT22;4094;49.948;11.574;2023-02-20T06:09:26;10.80;72.30
8103;DHT22;4094;49.948;11.574;2023-02-20T06:11:56;10.70;72.00
8103;DHT22;4094;49.948;11.574;2023-02-20T06:14:26;10.80;72.10
8103;DHT22;4094;49.948;11.574;2023-02-20T06:16:56;10.70;72.00
8103;DHT22;4094;49.948;11.574;2023-02-20T06:19:25;10.70;72.00
8103;DHT22;4094;49.948;11.574;2023-02-20T06:21:55;10.70;72.00
8103;DHT22;4094;49.948;11.574;2023-02-20T06:24:26;10.70;72.00
8103;DHT22;4094;49.948;11.574;2023-02-20T06:26:56;10.70;71.90
8103;DHT22;4094;49.948;11.574;2023-02-20T06:29:27;10.70;71.60
8103;DHT22;4094;49.948;11.574;2023-02-20T06:31:57;10.70;71.40
8103;DHT22;4094;49.948;11.574;2023-02-20T06:34:27;10.70;71.50
8103;DHT22;4094;49.948;11.574;2023-02-20T06:36:59;10.70;71.40
8103;DHT22;4094;49.948;11.574;2023-02-20T06:39:31;10.70;71.50
8103;DHT22;4094;49.948;11.574;2023-02-20T06:42:01;10.70;71.50
8103;DHT22;4094;49.948;11.574;2023-02-20T06:44:31;10.70;71.50
8103;DHT22;4094;49.948;11.574;2023-02-20T06:47:00;10.70;71.40
8103;DHT22;4094;49.948;11.574;2023-02-20T06:49:29;10.70;71.40
8103;DHT22;4094;49.948;11.574;2023-02-20T06:51:58;10.70;71.50
8103;DHT22;4094;49.948;11.574;2023-02-20T06:54:30;10.70;71.40
8103;DHT22;4094;49.948;11.574;2023-02-20T06:57:00;10.70;71.30
8103;DHT22;4094;49.948;11.574;2023-02-20T06:59:31;10.70;71.30
8103;DHT22;4094;49.948;11.574;2023-02-20T07:02:09;10.70;71.00
8103;DHT22;4094;49.948;11.574;2023-02-20T07:04:39;10.70;71.10
8103;DHT22;4094;49.948;11.574;2023-02-20T07:07:08;10.70;71.20
8103;DHT22;4094;49.948;11.574;2023-02-20T07:09:37;10.70;71.20
8103;DHT22;4094;49.948;11.574;2023-02-20T07:12:07;10.70;71.00
8103;DHT22;4094;49.948;11.574;2023-02-20T07:14:37;10.70;71.10
8103;DHT22;4094;49.948;11.574;2023-02-20T07:17:06;10.70;71.30
8103;DHT22;4094;49.948;11.574;2023-02-20T07:19:36;10.70;71.50
8103;DHT22;4094;49.948;11.574;2023-02-20T07:22:05;10.70;71.60
8103;DHT22;4094;49.948;11.574;2023-02-20T07:24:34;10.70;71.50
8103;DHT22;4094;49.948;11.574;2023-02-20T07:27:03;10.70;71.50
8103;DHT22;4094;49.948;11.574;2023-02-20T07:29:33;10.80;71.40
8103;DHT22;4094;49.948;11.574;2023-02-20T07:32:04;10.80;71.30
8103;DHT22;4094;49.948;11.574;2023-02-20T07:34:35;10.80;71.30
8103;DHT22;4094;49.948;11.574;2023-02-20T07:37:04;10.80;71.30
8103;DHT22;4094;49.948;11.574;2023-02-20T07:39:33;10.90;71.20
8103;DHT22;4094;49.948;11.574;2023-02-20T07:42:03;10.90;70.80
8103;DHT22;4094;49.948;11.574;2023-02-20T07:44:45;10.90;70.70
8103;DHT22;4094;49.948;11.574;2023-02-20T07:47:17;10.90;70.80
8103;DHT22;4094;49.948;11.574;2023-02-20T07:49:46;10.90;70.60
8103;DHT22;4094;49.948;11.574;2023-02-20T07:52:15;11.00;70.70
8103;DHT22;4094;49.948;11.574;2023-02-20T07:54:44;11.00;70.30
8103;DHT22;4094;49.948;11.574;2023-02-20T07:57:14;11.00;70.00
8103;DHT22;4094;49.948;11.574;2023-02-20T07:59:43;11.00;70.20
8103;DHT22;4094;49.948;11.574;2023-02-20T08:02:12;11.00;70.00
8103;DHT22;4094;49.948;11.574;2023-02-20T08:04:42;11.10;70.00
8103;DHT22;4094;49.948;11.574;2023-02-20T08:07:12;11.10;69.90
8103;DHT22;4094;49.948;11.574;2023-02-20T08:09:41;11.10;70.20
8103;DHT22;4094;49.948;11.574;2023-02-20T08:12:10;11.20;70.20
8103;DHT22;4094;49.948;11.574;2023-02-20T08:14:40;11.30;70.40
8103;DHT22;4094;49.948;11.574;2023-02-20T08:17:10;11.40;70.50
8103;DHT22;4094;49.948;11.574;2023-02-20T08:19:39;11.60;70.40
8103;DHT22;4094;49.948;11.574;2023-02-20T08:22:09;11.70;69.20
8103;DHT22;4094;49.948;11.574;2023-02-20T08:24:39;11.90;68.70
8103;DHT22;4094;49.948;11.574;2023-02-20T08:27:08;12.10;68.10
8103;DHT22;4094;49.948;11.574;2023-02-20T08:29:37;12.20;68.10
8103;DHT22;4094;49.948;11.574;2023-02-20T08:32:06;12.30;67.80
8103;DHT22;4094;49.948;11.574;2023-02-20T08:34:35;12.40;67.20
8103;DHT22;4094;49.948;11.574;2023-02-20T08:37:05;12.40;66.60
8103;DHT22;4094;49.948;11.574;2023-02-20T08:39:37;12.50;67.10
8103;DHT22;4094;49.948;11.574;2023-02-20T08:42:06;12.50;67.20
8103;DHT22;4094;49.948;11.574;2023-02-20T08:44:35;12.60;66.80
8103;DHT22;4094;49.948;11.574;2023-02-20T08:47:04;12.70;66.40
8103;DHT22;4094;49.948;11.574;2023-02-20T08:49:34;12.70;66.00
8103;DHT22;4094;49.948;11.574;2023-02-20T08:52:03;12.80;66.20
8103;DHT22;4094;49.948;11.574;2023-02-20T08:54:33;12.90;65.80
8103;DHT22;4094;49.948;11.574;2023-02-20T08:57:03;12.90;65.70
8103;DHT22;4094;49.948;11.574;2023-02-20T08:59:32;12.90;65.30
8103;DHT22;4094;49.948;11.574;2023-02-20T09:02:02;12.90;65.80
8103;DHT22;4094;49.948;11.574;2023-02-20T09:04:31;12.90;65.70
8103;DHT22;4094;49.948;11.574;2023-02-20T09:07:00;12.90;65.50
8103;DHT22;4094;49.948;11.574;2023-02-20T09:09:29;13.00;65.50
8103;DHT22;4094;49.948;11.574;2023-02-20T09:11:59;13.10;65.70
8103;DHT22;4094;49.948;11.574;2023-02-20T09:14:29;13.20;66.00
8103;DHT22;4094;49.948;11.574;2023-02-20T09:16:58;13.30;65.70
8103;DHT22;4094;49.948;11.574;2023-02-20T09:19:27;13.50;65.60
8103;DHT22;4094;49.948;11.574;2023-02-20T09:21:56;13.50;64.70
8103;DHT22;4094;49.948;11.574;2023-02-20T09:24:25;13.70;65.40
8103;DHT22;4094;49.948;11.574;2023-02-20T09:26:59;13.90;65.00
8103;DHT22;4094;49.948;11.574;2023-02-20T09:29:29;14.20;64.70
8103;DHT22;4094;49.948;11.574;2023-02-20T09:31:58;14.40;64.00
8103;DHT22;4094;49.948;11.574;2023-02-20T09:34:28;14.70;62.80
8103;DHT22;4094;49.948;11.574;2023-02-20T09:36:56;14.90;62.30
8103;DHT22;4094;49.948;11.574;2023-02-20T09:39:25;15.10;62.00
8103;DHT22;4094;49.948;11.574;2023-02-20T09:42:07;15.40;62.40
8103;DHT22;4094;49.948;11.574;2023-02-20T09:44:47;15.80;60.50
8103;DHT22;4094;49.948;11.574;2023-02-20T09:47:28;16.10;60.70
8103;DHT22;4094;49.948;11.574;2023-02-20T09:50:02;16.50;59.40
8103;DHT22;4094;49.948;11.574;2023-02-20T09:52:33;16.70;58.50
8103;DHT22;4094;49.948;11.574;2023-02-20T09:55:11;16.90;58.10
8103;DHT22;4094;49.948;11.574;2023-02-20T09:57:40;17.20;58.60
8103;DHT22;4094;49.948;11.574;2023-02-20T10:00:18;17.40;58.20
8103;DHT22;4094;49.948;11.574;2023-02-20T10:02:54;17.70;57.50
8103;DHT22;4094;49.948;11.574;2023-02-20T10:05:27;17.90;56.00
8103;DHT22;4094;49.948;11.574;2023-02-20T10:07:57;18.00;56.20
8103;DHT22;4094;49.948;11.574;2023-02-20T10:10:28;18.20;56.40
8103;DHT22;4094;49.948;11.574;2023-02-20T10:13:09;18.30;55.70
8103;DHT22;4094;49.948;11.574;2023-02-20T10:15:48;18.50;55.00
8103;DHT22;4094;49.948;11.574;2023-02-20T10:18:26;18.70;54.30
8103;DHT22;4094;49.948;11.574;2023-02-20T10:21:01;18.70;53.20
8103;DHT22;4094;49.948;11.574;2023-02-20T10:23:39;18.50;51.90
8103;DHT22;4094;49.948;11.574;2023-02-20T10:26:27;18.30;52.50
8103;DHT22;4094;49.948;11.574;2023-02-20T10:29:14;18.10;53.10
8103;DHT22;4094;49.948;11.574;2023-02-20T10:31:50;17.90;53.20
8103;DHT22;4094;49.948;11.574;2023-02-20T10:34:24;17.70;53.80
8103;DHT22;4094;49.948;11.574;2023-02-20T10:37:02;17.70;54.30
8103;DHT22;4094;49.948;11.574;2023-02-20T10:39:34;17.60;53.70
8103;DHT22;4094;49.948;11.574;2023-02-20T10:42:09;17.50;53.90
8103;DHT22;4094;49.948;11.574;2023-02-20T10:44:45;17.50;53.50
8103;DHT22;4094;49.948;11.574;2023-02-20T10:47:23;17.40;53.40
8103;DHT22;4094;49.948;11.574;2023-02-20T10:50:00;17.20;53.20
8103;DHT22;4094;49.948;11.574;2023-02-20T10:52:35;17.10;54.00
8103;DHT22;4094;49.948;11.574;2023-02-20T10:55:08;17.10;54.90
8103;DHT22;4094;49.948;11.574;2023-02-20T10:57:43;17.30;55.40
8103;DHT22;4094;49.948;11.574;2023-02-20T11:00:16;17.50;55.10
8103;DHT22;4094;49.948;11.574;2023-02-20T11:02:56;17.70;54.00
8103;DHT22;4094;49.948;11.574;2023-02-20T11:05:31;17.80;53.10
8103;DHT22;4094;49.948;11.574;2023-02-20T11:08:03;17.90;53.50
8103;DHT22;4094;49.948;11.574;2023-02-20T11:10:32;17.90;53.60
8103;DHT22;4094;49.948;11.574;2023-02-20T11:13:02;17.90;52.90
8103;DHT22;4094;49.948;11.574;2023-02-20T11:15:33;17.90;52.80
8103;DHT22;4094;49.948;11.574;2023-02-20T11:18:19;18.20;53.50
8103;DHT22;4094;49.948;11.574;2023-02-20T11:20:48;18.40;53.20
8103;DHT22;4094;49.948;11.574;2023-02-20T11:23:41;18.60;52.80
8103;DHT22;4094;49.948;11.574;2023-02-20T11:26:28;18.80;51.50
8103;DHT22;4094;49.948;11.574;2023-02-20T11:29:10;18.90;51.70
8103;DHT22;4094;49.948;11.574;2023-02-20T11:31:42;19.20;51.50
8103;DHT22;4094;49.948;11.574;2023-02-20T11:34:16;19.50;51.40
8103;DHT22;4094;49.948;11.574;2023-02-20T11:36:48;19.90;50.80
8103;DHT22;4094;49.948;11.574;2023-02-20T11:39:23;20.30;50.30
8103;DHT22;4094;49.948;11.574;2023-02-20T11:42:05;20.50;49.50
8103;DHT22;4094;49.948;11.574;2023-02-20T11:44:35;20.50;47.70
8103;DHT22;4094;49.948;11.574;2023-02-20T11:47:10;20.50;48.10
8103;DHT22;4094;49.948;11.574;2023-02-20T11:49:41;20.30;47.80
8103;DHT22;4094;49.948;11.574;2023-02-20T11:52:16;20.10;47.80
8103;DHT22;4094;49.948;11.574;2023-02-20T11:54:45;19.80;47.60
8103;DHT22;4094;49.948;11.574;2023-02-20T11:57:23;19.40;48.00
8103;DHT22;4094;49.948;11.574;2023-02-20T12:00:08;19.10;48.80
8103;DHT22;4094;49.948;11.574;2023-02-20T12:02:48;18.80;49.20
8103;DHT22;4094;49.948;11.574;2023-02-20T12:05:19;18.60;49.60
8103;DHT22;4094;49.948;11.574;2023-02-20T12:07:57;18.40;50.00
8103;DHT22;4094;49.948;11.574;2023-02-20T12:10:37;18.30;50.10
8103;DHT22;4094;49.948;11.574;2023-02-20T12:13:12;18.20;50.30
8103;DHT22;4094;49.948;11.574;2023-02-20T12:15:45;18.10;50.70
8103;DHT22;4094;49.948;11.574;2023-02-20T12:18:41;18.10;51.00
8103;DHT22;4094;49.948;11.574;2023-02-20T12:21:21;18.10;51.60
8103;DHT22;4094;49.948;11.574;2023-02-20T12:24:05;18.20;52.10
8103;DHT22;4094;49.948;11.574;2023-02-20T12:26:49;18.30;51.20
8103;DHT22;4094;49.948;11.574;2023-02-20T12:29:30;18.30;51.00
8103;DHT22;4094;49.948;11.574;2023-02-20T12:32:16;18.40;51.10
8103;DHT22;4094;49.948;11.574;2023-02-20T12:34:57;18.40;51.00
8103;DHT22;4094;49.948;11.574;2023-02-20T12:37:39;18.60;51.40
8103;DHT22;4094;49.948;11.574;2023-02-20T12:40:27;18.90;51.10
8103;DHT22;4094;49.948;11.574;2023-02-20T12:43:07;19.40;51.50
8103;DHT22;4094;49.948;11.574;2023-02-20T12:45:40;20.10;51.30
8103;DHT22;4094;49.948;11.574;2023-02-20T12:48:27;20.90;51.20
8103;DHT22;4094;49.948;11.574;2023-02-20T12:51:07;21.80;49.10
8103;DHT22;4094;49.948;11.574;2023-02-20T12:53:52;22.40;47.50
8103;DHT22;4094;49.948;11.574;2023-02-20T12:56:50;22.70;46.20
8103;DHT22;4094;49.948;11.574;2023-02-20T12:59:27;23.00;46.00
8103;DHT22;4094;49.948;11.574;2023-02-20T13:02:04;23.00;44.90
8103;DHT22;4094;49.948;11.574;2023-02-20T13:04:41;23.00;44.90
8103;DHT22;4094;49.948;11.574;2023-02-20T13:07:17;22.80;43.90
8103;DHT22;4094;49.948;11.574;2023-02-20T13:10:02;22.60;43.70
8103;DHT22;4094;49.948;11.574;2023-02-20T13:12:32;22.30;44.10
8103;DHT22;4094;49.948;11.574;2023-02-20T13:15:21;22.10;44.80
8103;DHT22;4094;49.948;11.574;2023-02-20T13:17:57;22.00;44.90
8103;DHT22;4094;49.948;11.574;2023-02-20T13:20:30;21.90;44.60
8103;DHT22;4094;49.948;11.574;2023-02-20T13:23:03;21.70;44.70
8103;DHT22;4094;49.948;11.574;2023-02-20T13:25:40;21.60;44.70
8103;DHT22;4094;49.948;11.574;2023-02-20T13:28:34;21.60;45.20
8103;DHT22;4094;49.948;11.574;2023-02-20T13:31:15;21.60;45.30
8103;DHT22;4094;49.948;11.574;2023-02-20T13:33:46;21.60;45.00
8103;DHT22;4094;49.948;11.574;2023-02-20T13:36:38;21.50;44.90
8103;DHT22;4094;49.948;11.574;2023-02-20T13:39:40;21.40;44.30
8103;DHT22;4094;49.948;11.574;2023-02-20T13:42:31;21.10;44.70
8103;DHT22;4094;49.948;11.574;2023-02-20T13:45:00;20.70;44.50
8103;DHT22;4094;49.948;11.574;2023-02-20T13:47:35;20.40;44.80
8103;DHT22;4094;49.948;11.574;2023-02-20T13:50:29;20.00;45.20
8103;DHT22;4094;49.948;11.574;2023-02-20T13:53:02;19.70;45.70
8103;DHT22;4094;49.948;11.574;2023-02-20T13:55:33;19.30;46.10
8103;DHT22;4094;49.948;11.574;2023-02-20T13:58:10;19.00;46.40
8103;DHT22;4094;49.948;11.574;2023-02-20T14:00:49;18.70;46.70
8103;DHT22;4094;49.948;11.574;2023-02-20T14:03:22;18.50;47.10
8103;DHT22;4094;49.948;11.574;2023-02-20T14:06:04;18.20;47.40
8103;DHT22;4094;49.948;11.574;2023-02-20T14:08:35;18.00;47.80
8103;DHT22;4094;49.948;11.574;2023-02-20T14:11:06;17.80;48.10
8103;DHT22;4094;49.948;11.574;2023-02-20T14:13:38;17.60;48.60
8103;DHT22;4094;49.948;11.574;2023-02-20T14:16:34;17.50;48.70
8103;DHT22;4094;49.948;11.574;2023-02-20T14:19:08;17.40;49.20
8103;DHT22;4094;49.948;11.574;2023-02-20T14:21:42;17.20;49.30
8103;DHT22;4094;49.948;11.574;2023-02-20T14:24:17;17.10;49.40
8103;DHT22;4094;49.948;11.574;2023-02-20T14:26:46;17.00;49.50
8103;DHT22;4094;49.948;11.574;2023-02-20T14:29:22;16.90;50.20
8103;DHT22;4094;49.948;11.574;2023-02-20T14:31:52;16.80;50.00
8103;DHT22;4094;49.948;11.574;2023-02-20T14:34:27;16.70;50.10
8103;DHT22;4094;49.948;11.574;2023-02-20T14:37:04;16.60;50.80
8103;DHT22;4094;49.948;11.574;2023-02-20T14:39:46;16.50;50.50
8103;DHT22;4094;49.948;11.574;2023-02-20T14:42:20;16.40;50.60
8103;DHT22;4094;49.948;11.574;2023-02-20T14:44:57;16.40;50.70
8103;DHT22;4094;49.948;11.574;2023-02-20T14:47:27;16.30;50.60
8103;DHT22;4094;49.948;11.574;2023-02-20T14:50:15;16.30;50.70
8103;DHT22;4094;49.948;11.574;2023-02-20T14:52:44;16.20;50.40
8103;DHT22;4094;49.948;11.574;2023-02-20T14:55:16;16.20;50.40
8103;DHT22;4094;49.948;11.574;2023-02-20T14:57:47;16.10;50.30
8103;DHT22;4094;49.948;11.574;2023-02-20T15:00:32;16.00;50.30
8103;DHT22;4094;49.948;11.574;2023-02-20T15:03:08;16.00;50.30
8103;DHT22;4094;49.948;11.574;2023-02-20T15:05:59;16.00;50.30
8103;DHT22;4094;49.948;11.574;2023-02-20T15:08:31;16.00;50.50
8103;DHT22;4094;49.948;11.574;2023-02-20T15:11:06;15.90;50.50
8103;DHT22;4094;49.948;11.574;2023-02-20T15:13:37;15.80;50.60
8103;DHT22;4094;49.948;11.574;2023-02-20T15:16:14;15.80;50.60
8103;DHT22;4094;49.948;11.574;2023-02-20T15:18:46;15.80;50.60
8103;DHT22;4094;49.948;11.574;2023-02-20T15:21:32;15.80;50.40
8103;DHT22;4094;49.948;11.574;2023-02-20T15:24:21;15.80;50.50
8103;DHT22;4094;49.948;11.574;2023-02-20T15:26:54;15.80;50.50
8103;DHT22;4094;49.948;11.574;2023-02-20T15:29:34;15.70;50.50
8103;DHT22;4094;49.948;11.574;2023-02-20T15:32:05;15.70;50.40
8103;DHT22;4094;49.948;11.574;2023-02-20T15:34:42;15.70;50.50
8103;DHT22;4094;49.948;11.574;2023-02-20T15:37:18;15.60;50.50
8103;DHT22;4094;49.948;11.574;2023-02-20T15:40:08;15.60;50.70
8103;DHT22;4094;49.948;11.574;2023-02-20T15:42:44;15.60;50.70
8103;DHT22;4094;49.948;11.574;2023-02-20T15:45:15;15.50;50.60
8103;DHT22;4094;49.948;11.574;2023-02-20T15:47:45;15.50;50.50
8103;DHT22;4094;49.948;11.574;2023-02-20T15:50:15;15.40;50.50
8103;DHT22;4094;49.948;11.574;2023-02-20T15:52:44;15.40;51.10
8103;DHT22;4094;49.948;11.574;2023-02-20T15:55:15;15.40;50.60
8103;DHT22;4094;49.948;11.574;2023-02-20T15:57:45;15.40;50.70
8103;DHT22;4094;49.948;11.574;2023-02-20T16:00:20;15.30;50.70
8103;DHT22;4094;49.948;11.574;2023-02-20T16:02:53;15.30;50.80
8103;DHT22;4094;49.948;11.574;2023-02-20T16:05:22;15.30;50.90
8103;DHT22;4094;49.948;11.574;2023-02-20T16:07:52;15.30;51.00
8103;DHT22;4094;49.948;11.574;2023-02-20T16:10:22;15.20;51.20
8103;DHT22;4094;49.948;11.574;2023-02-20T16:12:53;15.20;51.30
8103;DHT22;4094;49.948;11.574;2023-02-20T16:15:22;15.10;51.40
8103;DHT22;4094;49.948;11.574;2023-02-20T16:17:54;15.10;51.40
8103;DHT22;4094;49.948;11.574;2023-02-20T16:20:26;15.10;51.60
8103;DHT22;4094;49.948;11.574;2023-02-20T16:22:56;15.00;51.70
8103;DHT22;4094;49.948;11.574;2023-02-20T16:25:25;15.00;51.70
8103;DHT22;4094;49.948;11.574;2023-02-20T16:27:55;14.90;51.80
8103;DHT22;4094;49.948;11.574;2023-02-20T16:30:28;14.90;51.90
8103;DHT22;4094;49.948;11.574;2023-02-20T16:33:09;14.90;52.10
8103;DHT22;4094;49.948;11.574;2023-02-20T16:35:40;14.90;52.30